sensor_id;sensor_type;location;lat;lon;timestamp;P1;durP1;ratioP1;P2;durP2;ratioP2
58774;SDS011;44545;47.480;19.024;2024-02-26T04:35:53;9.98;;;5.00;;
58774;SDS011;44545;47.480;19.024;2024-02-26T04:38:56;9.20;;;4.15;;
58774;SDS011;44545;47.480;19.024;2024-02-26T04:41:58;8.88;;;3.67;;
58774;SDS011;44545;47.480;19.024;2024-02-26T04:45:01;10.00;;;3.83;;
58774;SDS011;44545;47.480;19.024;2024-02-26T04:48:03;14.65;;;4.90;;
58774;SDS011;44545;47.480;19.024;2024-02-26T04:51:06;7.30;;;3.75;;
58774;SDS011;44545;47.480;19.024;2024-02-26T04:54:08;6.55;;;3.12;;
58774;SDS011;44545;47.480;19.024;2024-02-26T04:57:11;5.32;;;3.55;;
58774;SDS011;44545;47.480;19.024;2024-02-26T05:00:13;4.85;;;3.37;;
58774;SDS011;44545;47.480;19.024;2024-02-26T05:03:16;6.70;;;3.87;;
58774;SDS011;44545;47.480;19.024;2024-02-26T05:06:19;15.38;;;5.25;;
58774;SDS011;44545;47.480;19.024;2024-02-26T05:09:21;7.10;;;3.83;;
58774;SDS011;44545;47.480;19.024;2024-02-26T05:12:23;10.85;;;3.83;;
58774;SDS011;44545;47.480;19.024;2024-02-26T05:15:26;6.40;;;2.75;;
58774;SDS011;44545;47.480;19.024;2024-02-26T05:18:28;4.75;;;3.03;;
58774;SDS011;44545;47.480;19.024;2024-02-26T05:21:31;5.80;;;2.95;;
58774;SDS011;44545;47.480;19.024;2024-02-26T05:24:33;5.68;;;3.50;;
58774;SDS011;44545;47.480;19.024;2024-02-26T05:27:36;4.87;;;2.78;;
58774;SDS011;44545;47.480;19.024;2024-02-26T05:30:38;9.13;;;3.62;;
58774;SDS011;44545;47.480;19.024;2024-02-26T05:33:42;5.35;;;3.33;;
58774;SDS011;44545;47.480;19.024;2024-02-26T05:36:44;11.12;;;4.57;;
58774;SDS011;44545;47.480;19.024;2024-02-26T05:39:47;4.93;;;2.60;;
58774;SDS011;44545;47.480;19.024;2024-02-26T05:42:49;8.57;;;4.28;;
58774;SDS011;44545;47.480;19.024;2024-02-26T05:45:51;7.18;;;3.85;;
58774;SDS011;44545;47.480;19.024;2024-02-26T05:48:54;7.22;;;4.53;;
58774;SDS011;44545;47.480;19.024;2024-02-26T05:51:56;7.22;;;4.50;;
58774;SDS011;44545;47.480;19.024;2024-02-26T05:54:58;8.70;;;4.40;;
58774;SDS011;44545;47.480;19.024;2024-02-26T05:58:01;7.80;;;3.92;;
58774;SDS011;44545;47.480;19.024;2024-02-26T06:01:03;6.60;;;3.58;;
58774;SDS011;44545;47.480;19.024;2024-02-26T06:04:06;5.78;;;3.87;;
58774;SDS011;44545;47.480;19.024;2024-02-26T06:07:08;7.03;;;4.45;;
58774;SDS011;44545;47.480;19.024;2024-02-26T06:10:11;4.55;;;2.80;;
58774;SDS011;44545;47.480;19.024;2024-02-26T06:13:15;6.75;;;3.42;;
58774;SDS011;44545;47.480;19.024;2024-02-26T06:16:17;6.43;;;3.17;;
58774;SDS011;44545;47.480;19.024;2024-02-26T06:19:20;11.55;;;5.40;;
58774;SDS011;44545;47.480;19.024;2024-02-26T06:22:22;7.72;;;3.83;;
58774;SDS011;44545;47.480;19.024;2024-02-26T06:25:25;6.20;;;3.03;;
58774;SDS011;44545;47.480;19.024;2024-02-26T06:28:28;8.18;;;4.53;;
58774;SDS011;44545;47.480;19.024;2024-02-26T06:31:32;6.55;;;2.78;;
58774;SDS011;44545;47.480;19.024;2024-02-26T06:34:35;10.73;;;4.93;;
58774;SDS011;44545;47.480;19.024;2024-02-26T06:37:37;12.75;;;4.95;;
58774;SDS011;44545;47.480;19.024;2024-02-26T06:40:39;6.43;;;3.65;;
58774;SDS011;44545;47.480;19.024;2024-02-26T06:43:42;7.43;;;4.70;;
58774;SDS011;44545;47.480;19.024;2024-02-26T06:46:44;2.72;;;1.85;;
58774;SDS011;44545;47.480;19.024;2024-02-26T06:49:46;8.88;;;3.50;;
58774;SDS011;44545;47.480;19.024;2024-02-26T06:52:50;10.88;;;3.85;;
58774;SDS011;44545;47.480;19.024;2024-02-26T06:55:52;7.03;;;4.18;;
58774;SDS011;44545;47.480;19.024;2024-02-26T06:58:54;8.82;;;3.55;;
58774;SDS011;44545;47.480;19.024;2024-02-26T07:01:57;7.05;;;4.22;;
58774;SDS011;44545;47.480;19.024;2024-02-26T07:04:59;4.25;;;3.33;;
58774;SDS011;44545;47.480;19.024;2024-02-26T07:08:02;6.93;;;4.18;;
58774;SDS011;44545;47.480;19.024;2024-02-26T07:14:13;7.43;;;4.12;;
58774;SDS011;44545;47.480;19.024;2024-02-26T07:17:16;10.98;;;5.82;;
58774;SDS011;44545;47.480;19.024;2024-02-26T07:20:19;12.95;;;6.40;;
58774;SDS011;44545;47.480;19.024;2024-02-26T07:23:26;6.57;;;3.90;;
58774;SDS011;44545;47.480;19.024;2024-02-26T07:26:28;10.93;;;6.35;;
58774;SDS011;44545;47.480;19.024;2024-02-26T07:29:33;8.30;;;4.12;;
58774;SDS011;44545;47.480;19.024;2024-02-26T07:32:35;7.03;;;3.85;;
58774;SDS011;44545;47.480;19.024;2024-02-26T07:35:38;13.57;;;5.03;;
58774;SDS011;44545;47.480;19.024;2024-02-26T07:38:40;13.43;;;5.35;;
58774;SDS011;44545;47.480;19.024;2024-02-26T07:41:45;12.90;;;6.15;;
58774;SDS011;44545;47.480;19.024;2024-02-26T07:47:54;9.70;;;5.95;;
58774;SDS011;44545;47.480;19.024;2024-02-26T07:50:57;9.98;;;5.80;;
58774;SDS011;44545;47.480;19.024;2024-02-26T07:54:01;9.02;;;6.03;;
58774;SDS011;44545;47.480;19.024;2024-02-26T07:57:04;11.70;;;6.50;;
58774;SDS011;44545;47.480;19.024;2024-02-26T08:00:08;9.35;;;5.03;;
58774;SDS011;44545;47.480;19.024;2024-02-26T08:03:12;18.52;;;8.75;;
58774;SDS011;44545;47.480;19.024;2024-02-26T08:06:16;14.60;;;6.75;;
58774;SDS011;44545;47.480;19.024;2024-02-26T08:09:18;10.20;;;6.30;;
58774;SDS011;44545;47.480;19.024;2024-02-26T08:12:21;11.63;;;7.70;;
58774;SDS011;44545;47.480;19.024;2024-02-26T08:15:24;16.17;;;7.50;;
58774;SDS011;44545;47.480;19.024;2024-02-26T08:18:26;15.25;;;5.95;;
58774;SDS011;44545;47.480;19.024;2024-02-26T08:21:29;12.77;;;6.43;;
58774;SDS011;44545;47.480;19.024;2024-02-26T08:24:31;13.57;;;6.97;;
58774;SDS011;44545;47.480;19.024;2024-02-26T08:27:34;14.68;;;6.62;;
58774;SDS011;44545;47.480;19.024;2024-02-26T08:30:36;18.33;;;8.52;;
58774;SDS011;44545;47.480;19.024;2024-02-26T08:33:39;13.45;;;7.15;;
58774;SDS011;44545;47.480;19.024;2024-02-26T08:36:41;10.82;;;6.47;;
58774;SDS011;44545;47.480;19.024;2024-02-26T08:39:46;15.13;;;7.25;;
58774;SDS011;44545;47.480;19.024;2024-02-26T08:42:49;11.25;;;7.78;;
58774;SDS011;44545;47.480;19.024;2024-02-26T08:45:52;12.30;;;5.32;;
58774;SDS011;44545;47.480;19.024;2024-02-26T08:48:55;12.77;;;6.18;;
58774;SDS011;44545;47.480;19.024;2024-02-26T08:51:58;15.18;;;6.93;;
58774;SDS011;44545;47.480;19.024;2024-02-26T08:55:00;14.18;;;7.20;;
58774;SDS011;44545;47.480;19.024;2024-02-26T08:58:03;16.08;;;7.32;;
58774;SDS011;44545;47.480;19.024;2024-02-26T09:01:05;12.20;;;7.03;;
58774;SDS011;44545;47.480;19.024;2024-02-26T09:04:08;10.50;;;5.25;;
58774;SDS011;44545;47.480;19.024;2024-02-26T09:07:10;11.52;;;6.78;;
58774;SDS011;44545;47.480;19.024;2024-02-26T09:10:13;10.57;;;5.90;;
58774;SDS011;44545;47.480;19.024;2024-02-26T09:13:15;14.23;;;7.57;;
58774;SDS011;44545;47.480;19.024;2024-02-26T09:16:18;12.65;;;6.30;;
58774;SDS011;44545;47.480;19.024;2024-02-26T09:19:20;9.95;;;6.12;;
58774;SDS011;44545;47.480;19.024;2024-02-26T09:22:23;12.27;;;6.40;;
58774;SDS011;44545;47.480;19.024;2024-02-26T09:25:25;17.92;;;5.97;;
58774;SDS011;44545;47.480;19.024;2024-02-26T09:28:27;11.60;;;6.80;;
58774;SDS011;44545;47.480;19.024;2024-02-26T09:31:32;13.38;;;6.25;;
58774;SDS011;44545;47.480;19.024;2024-02-26T09:34:36;13.25;;;7.37;;
58774;SDS011;44545;47.480;19.024;2024-02-26T09:37:39;11.77;;;6.62;;
58774;SDS011;44545;47.480;19.024;2024-02-26T09:40:41;12.98;;;6.50;;
58774;SDS011;44545;47.480;19.024;2024-02-26T09:43:44;20.30;;;6.05;;
58774;SDS011;44545;47.480;19.024;2024-02-26T09:46:50;11.80;;;6.20;;
58774;SDS011;44545;47.480;19.024;2024-02-26T09:49:54;11.25;;;6.53;;
58774;SDS011;44545;47.480;19.024;2024-02-26T09:53:01;10.85;;;5.90;;
58774;SDS011;44545;47.480;19.024;2024-02-26T09:56:06;8.70;;;5.53;;
58774;SDS011;44545;47.480;19.024;2024-02-26T09:59:10;9.57;;;5.65;;
58774;SDS011;44545;47.480;19.024;2024-02-26T10:02:18;15.32;;;6.65;;
58774;SDS011;44545;47.480;19.024;2024-02-26T10:05:23;11.95;;;6.72;;
58774;SDS011;44545;47.480;19.024;2024-02-26T10:08:26;12.75;;;6.85;;
58774;SDS011;44545;47.480;19.024;2024-02-26T10:11:30;10.30;;;5.60;;
58774;SDS011;44545;47.480;19.024;2024-02-26T10:14:36;14.25;;;8.35;;
58774;SDS011;44545;47.480;19.024;2024-02-26T10:17:39;15.43;;;7.82;;
58774;SDS011;44545;47.480;19.024;2024-02-26T10:20:41;12.15;;;6.53;;
58774;SDS011;44545;47.480;19.024;2024-02-26T10:23:44;10.52;;;6.55;;
58774;SDS011;44545;47.480;19.024;2024-02-26T10:26:48;11.98;;;6.15;;
58774;SDS011;44545;47.480;19.024;2024-02-26T10:29:51;8.20;;;5.40;;
58774;SDS011;44545;47.480;19.024;2024-02-26T10:32:55;8.93;;;5.78;;
58774;SDS011;44545;47.480;19.024;2024-02-26T10:35:58;13.15;;;6.62;;
58774;SDS011;44545;47.480;19.024;2024-02-26T10:39:04;9.13;;;5.07;;
58774;SDS011;44545;47.480;19.024;2024-02-26T10:42:10;9.07;;;5.87;;
58774;SDS011;44545;47.480;19.024;2024-02-26T10:45:14;13.18;;;6.37;;
58774;SDS011;44545;47.480;19.024;2024-02-26T10:48:17;11.82;;;5.87;;
58774;SDS011;44545;47.480;19.024;2024-02-26T10:51:20;9.60;;;5.20;;
58774;SDS011;44545;47.480;19.024;2024-02-26T10:54:28;10.80;;;5.18;;
58774;SDS011;44545;47.480;19.024;2024-02-26T10:57:35;10.15;;;5.32;;
58774;SDS011;44545;47.480;19.024;2024-02-26T11:00:42;9.23;;;4.25;;
58774;SDS011;44545;47.480;19.024;2024-02-26T11:03:45;8.18;;;4.93;;
58774;SDS011;44545;47.480;19.024;2024-02-26T11:06:48;10.40;;;4.90;;
58774;SDS011;44545;47.480;19.024;2024-02-26T11:09:52;7.62;;;4.62;;
58774;SDS011;44545;47.480;19.024;2024-02-26T11:12:57;10.20;;;4.62;;
58774;SDS011;44545;47.480;19.024;2024-02-26T11:16:01;6.28;;;3.90;;
58774;SDS011;44545;47.480;19.024;2024-02-26T11:19:05;8.00;;;4.72;;
58774;SDS011;44545;47.480;19.024;2024-02-26T11:22:10;7.18;;;3.97;;
58774;SDS011;44545;47.480;19.024;2024-02-26T11:25:25;8.38;;;3.75;;
58774;SDS011;44545;47.480;19.024;2024-02-26T11:28:28;8.02;;;4.18;;
58774;SDS011;44545;47.480;19.024;2024-02-26T11:31:32;12.02;;;5.20;;
58774;SDS011;44545;47.480;19.024;2024-02-26T11:34:38;9.23;;;4.95;;
58774;SDS011;44545;47.480;19.024;2024-02-26T11:37:41;10.98;;;5.18;;
58774;SDS011;44545;47.480;19.024;2024-02-26T11:40:53;10.20;;;4.72;;
58774;SDS011;44545;47.480;19.024;2024-02-26T11:44:01;8.85;;;4.47;;
58774;SDS011;44545;47.480;19.024;2024-02-26T11:47:11;8.95;;;4.68;;
58774;SDS011;44545;47.480;19.024;2024-02-26T11:53:46;7.30;;;3.58;;
58774;SDS011;44545;47.480;19.024;2024-02-26T11:56:50;6.00;;;3.00;;
58774;SDS011;44545;47.480;19.024;2024-02-26T11:59:53;6.05;;;3.05;;
58774;SDS011;44545;47.480;19.024;2024-02-26T12:03:00;6.47;;;2.85;;
58774;SDS011;44545;47.480;19.024;2024-02-26T12:06:04;4.85;;;2.90;;
58774;SDS011;44545;47.480;19.024;2024-02-26T12:09:07;4.30;;;2.42;;
58774;SDS011;44545;47.480;19.024;2024-02-26T12:12:13;8.73;;;2.90;;
58774;SDS011;44545;47.480;19.024;2024-02-26T12:15:22;9.55;;;3.40;;
58774;SDS011;44545;47.480;19.024;2024-02-26T12:18:25;5.12;;;3.20;;
58774;SDS011;44545;47.480;19.024;2024-02-26T12:21:28;7.78;;;3.17;;
58774;SDS011;44545;47.480;19.024;2024-02-26T12:24:31;5.90;;;2.67;;
58774;SDS011;44545;47.480;19.024;2024-02-26T12:27:33;3.80;;;2.62;;
58774;SDS011;44545;47.480;19.024;2024-02-26T12:30:36;4.90;;;3.33;;
58774;SDS011;44545;47.480;19.024;2024-02-26T12:33:38;5.37;;;2.60;;
58774;SDS011;44545;47.480;19.024;2024-02-26T12:36:41;2.97;;;2.37;;
58774;SDS011;44545;47.480;19.024;2024-02-26T12:39:43;5.15;;;2.47;;
58774;SDS011;44545;47.480;19.024;2024-02-26T12:42:48;3.65;;;2.28;;
58774;SDS011;44545;47.480;19.024;2024-02-26T12:45:51;4.07;;;1.73;;
58774;SDS011;44545;47.480;19.024;2024-02-26T12:48:56;5.85;;;2.08;;
58774;SDS011;44545;47.480;19.024;2024-02-26T12:52:00;4.50;;;2.45;;
58774;SDS011;44545;47.480;19.024;2024-02-26T12:55:04;4.57;;;2.50;;
58774;SDS011;44545;47.480;19.024;2024-02-26T12:58:09;6.28;;;2.83;;
58774;SDS011;44545;47.480;19.024;2024-02-26T13:01:16;4.55;;;3.08;;
58774;SDS011;44545;47.480;19.024;2024-02-26T13:04:22;4.78;;;2.92;;
58774;SDS011;44545;47.480;19.024;2024-02-26T13:07:25;7.78;;;3.10;;
58774;SDS011;44545;47.480;19.024;2024-02-26T13:10:27;4.22;;;2.22;;
58774;SDS011;44545;47.480;19.024;2024-02-26T13:13:30;6.85;;;3.20;;
58774;SDS011;44545;47.480;19.024;2024-02-26T13:16:33;5.78;;;2.78;;
58774;SDS011;44545;47.480;19.024;2024-02-26T13:19:36;4.85;;;2.78;;
58774;SDS011;44545;47.480;19.024;2024-02-26T13:22:39;4.40;;;2.72;;
58774;SDS011;44545;47.480;19.024;2024-02-26T13:25:42;3.55;;;2.03;;
58774;SDS011;44545;47.480;19.024;2024-02-26T13:28:47;4.90;;;2.55;;
58774;SDS011;44545;47.480;19.024;2024-02-26T13:31:53;5.80;;;2.70;;
58774;SDS011;44545;47.480;19.024;2024-02-26T13:35:04;5.70;;;2.75;;
58774;SDS011;44545;47.480;19.024;2024-02-26T13:38:10;4.20;;;2.83;;
58774;SDS011;44545;47.480;19.024;2024-02-26T13:41:14;3.90;;;2.40;;
58774;SDS011;44545;47.480;19.024;2024-02-26T13:44:17;5.43;;;3.12;;
58774;SDS011;44545;47.480;19.024;2024-02-26T13:47:20;3.30;;;2.10;;
58774;SDS011;44545;47.480;19.024;2024-02-26T13:50:22;5.05;;;2.45;;
58774;SDS011;44545;47.480;19.024;2024-02-26T13:53:25;5.97;;;3.40;;
58774;SDS011;44545;47.480;19.024;2024-02-26T13:56:27;4.35;;;2.42;;
58774;SDS011;44545;47.480;19.024;2024-02-26T13:59:30;5.70;;;3.42;;
58774;SDS011;44545;47.480;19.024;2024-02-26T14:02:36;4.22;;;2.78;;
58774;SDS011;44545;47.480;19.024;2024-02-26T14:05:38;4.80;;;3.12;;
58774;SDS011;44545;47.480;19.024;2024-02-26T14:08:41;5.10;;;3.55;;
58774;SDS011;44545;47.480;19.024;2024-02-26T14:11:47;5.78;;;3.12;;
58774;SDS011;44545;47.480;19.024;2024-02-26T14:17:55;4.30;;;2.92;;
58774;SDS011;44545;47.480;19.024;2024-02-26T14:20:59;5.28;;;2.78;;
58774;SDS011;44545;47.480;19.024;2024-02-26T14:24:02;4.10;;;2.80;;
58774;SDS011;44545;47.480;19.024;2024-02-26T14:27:06;5.37;;;3.28;;
58774;SDS011;44545;47.480;19.024;2024-02-26T14:30:11;4.68;;;3.25;;
58774;SDS011;44545;47.480;19.024;2024-02-26T14:33:14;6.30;;;2.90;;
58774;SDS011;44545;47.480;19.024;2024-02-26T14:36:16;6.32;;;3.00;;
58774;SDS011;44545;47.480;19.024;2024-02-26T14:39:19;5.53;;;4.03;;
58774;SDS011;44545;47.480;19.024;2024-02-26T14:42:22;5.78;;;3.45;;
58774;SDS011;44545;47.480;19.024;2024-02-26T14:45:26;8.10;;;4.47;;
58774;SDS011;44545;47.480;19.024;2024-02-26T14:48:29;7.43;;;4.43;;
58774;SDS011;44545;47.480;19.024;2024-02-26T14:51:33;5.90;;;3.15;;
58774;SDS011;44545;47.480;19.024;2024-02-26T14:54:36;5.10;;;2.70;;
58774;SDS011;44545;47.480;19.024;2024-02-26T14:57:41;11.17;;;5.07;;
58774;SDS011;44545;47.480;19.024;2024-02-26T15:00:44;7.18;;;4.95;;
58774;SDS011;44545;47.480;19.024;2024-02-26T15:03:46;6.95;;;4.45;;
58774;SDS011;44545;47.480;19.024;2024-02-26T15:06:49;6.53;;;3.12;;
58774;SDS011;44545;47.480;19.024;2024-02-26T15:09:52;11.82;;;3.10;;
58774;SDS011;44545;47.480;19.024;2024-02-26T15:12:59;11.85;;;3.92;;
58774;SDS011;44545;47.480;19.024;2024-02-26T15:16:01;7.18;;;4.00;;
58774;SDS011;44545;47.480;19.024;2024-02-26T15:19:03;5.10;;;2.72;;
58774;SDS011;44545;47.480;19.024;2024-02-26T15:22:06;4.57;;;2.60;;
58774;SDS011;44545;47.480;19.024;2024-02-26T15:25:09;6.57;;;3.55;;
58774;SDS011;44545;47.480;19.024;2024-02-26T15:28:15;8.48;;;4.00;;
58774;SDS011;44545;47.480;19.024;2024-02-26T15:31:21;6.40;;;3.05;;
58774;SDS011;44545;47.480;19.024;2024-02-26T15:34:23;12.85;;;3.67;;
58774;SDS011;44545;47.480;19.024;2024-02-26T15:37:26;3.60;;;2.70;;
58774;SDS011;44545;47.480;19.024;2024-02-26T15:40:28;5.00;;;3.47;;
58774;SDS011;44545;47.480;19.024;2024-02-26T15:43:30;5.93;;;3.92;;
58774;SDS011;44545;47.480;19.024;2024-02-26T15:46:38;5.97;;;4.10;;
58774;SDS011;44545;47.480;19.024;2024-02-26T15:49:45;6.50;;;3.12;;
58774;SDS011;44545;47.480;19.024;2024-02-26T15:52:47;6.45;;;2.80;;
58774;SDS011;44545;47.480;19.024;2024-02-26T15:55:49;9.55;;;2.35;;
58774;SDS011;44545;47.480;19.024;2024-02-26T15:58:52;5.72;;;3.37;;
58774;SDS011;44545;47.480;19.024;2024-02-26T16:01:55;4.50;;;2.80;;
58774;SDS011;44545;47.480;19.024;2024-02-26T16:04:57;10.88;;;3.65;;
58774;SDS011;44545;47.480;19.024;2024-02-26T16:08:01;5.30;;;3.60;;
58774;SDS011;44545;47.480;19.024;2024-02-26T16:11:08;6.35;;;3.30;;
58774;SDS011;44545;47.480;19.024;2024-02-26T16:14:12;4.72;;;2.87;;
58774;SDS011;44545;47.480;19.024;2024-02-26T16:17:43;5.15;;;3.53;;
58774;SDS011;44545;47.480;19.024;2024-02-26T16:20:50;6.68;;;3.55;;
58774;SDS011;44545;47.480;19.024;2024-02-26T16:23:52;6.75;;;3.30;;
58774;SDS011;44545;47.480;19.024;2024-02-26T16:26:55;9.52;;;3.92;;
